Areg, Armenia

7:08 PM +04 on February 26, 2017 (GMT +0400)
Gyumri Shirak Airport | | Change Station

Elev 5000 ft 40.75 °N, 43.86 °E | Updated 8 minutes ago

Clear
Clear
23 °F
Feels Like 23 °F
N
2
Wind Variable Wind from Variable

Today
High -- | Low -- °F
--% Chance of Precip.
Yesterday
High -- | Low -- °F
Precip. -- in
Pressure 30.15 in
Visibility 3.1 miles
Clouds Scattered Clouds 4600 ft
Dew Point 16 °F
Humidity 74%
Rainfall 0.00 in
Snow Depth Not available.
7:42 AM 6:52 PM
New Moon, 0% visible
METAR UDSG 261500Z VRB02KT 5000 BR SCT046 M05/M09 Q1021 R02/CLRD70 NOSIG
Pressure 30.15 in
Visibility 3.1 miles
Clouds Scattered Clouds 4600 ft
Dew Point 16 °F
Humidity 74%
Rainfall 0.00 in
Snow Depth Not available.
7:42 AM 6:52 PM
New Moon, 0% visible
METAR UDSG 261500Z VRB02KT 5000 BR SCT046 M05/M09 Q1021 R02/CLRD70 NOSIG

Get Your Daily Forecast Email!

Thanks for signing up!

Be on the lookout for a verification email in your inbox.

You'll start receiving the daily forecast at 8 AM.

×

10-Day Weather Forecast

×

Almanac

Astronomy

Feb. 26, 2017 Rise Set
Actual Time
Civil Twilight
Nautical Twilight
Astronomical Twilight
Moon
Length of Visible Light
Length of Day
Tomorrow will be .
, % of the Moon is Illuminated

Today's Extremes

Country Highs Country Lows

Community

WunderPhotos

Upload Photos

1,962,540 photos uploaded!

WunderBlog® & News

Nearby

Air Quality

  Air Quality AQ Index Pollutant
Not available.

Snow Depth

Station Depth Elevation

Earthquake Activity

City Distance Mag. Time & Date
Minimum magnitude displayed is 2.5.

Coastal Water Temperatures

Place Temperature

Stations

Nearby Weather Stations

Station Location Temp. Windchill Dew Point Humidity Wind Precip. Elev Updated Type